Terminal Aerodrome Forecast
Issued by NWS

Home | Current Version | Previous Version | Graphics & Text | Print | Product List | Glossary On
Versions: 1 2 3 4 5 6 7 8 9 10 11 12 13 14 15 16 17
000
FTUS43 KABR 290527
TAFMBG
TAF
KMBG 290527Z 2906/3006 VRB06KT P6SM SKC
     FM291400 02010KT P6SM FEW250
     FM300500 07007KT P6SM FEW250=

USA.gov is the U.S. government's official web portal to all federal, state and local government web resources and services.